createdAt,value
2017-11-10T00:00:29.395Z,13.36
2017-11-10T00:01:39.804Z,13.45
2017-11-10T00:02:49.945Z,13.31
2017-11-10T00:04:00.029Z,13.32
2017-11-10T00:05:10.130Z,13.28
2017-11-10T00:06:20.224Z,13.28
2017-11-10T00:07:30.643Z,13.35
2017-11-10T00:08:40.715Z,13.27
2017-11-10T00:09:51.117Z,13.31
2017-11-10T00:11:01.525Z,13.21
2017-11-10T00:12:12.629Z,13.35
2017-11-10T00:13:22.385Z,13.29
2017-11-10T00:14:32.863Z,13.24
2017-11-10T00:15:42.937Z,13.24
2017-11-10T00:16:53.352Z,13.35
2017-11-10T00:18:03.099Z,13.32
2017-11-10T00:19:12.863Z,13.28
2017-11-10T00:20:23.348Z,13.24
2017-11-10T00:21:33.754Z,13.27
2017-11-10T00:22:44.191Z,13.24
2017-11-10T00:23:54.620Z,13.2
2017-11-10T00:25:04.359Z,13.21
2017-11-10T00:26:14.796Z,13.25
2017-11-10T00:27:25.217Z,13.2
2017-11-10T00:28:35.287Z,13.21
2017-11-10T00:29:45.372Z,13.16
2017-11-10T00:30:55.465Z,13.19
2017-11-10T00:32:05.936Z,13.2
2017-11-10T00:33:15.680Z,13.17
2017-11-10T00:34:26.122Z,13.21
2017-11-10T00:35:36.536Z,13.17
2017-11-10T00:36:46.943Z,13.14
2017-11-10T00:37:57.078Z,13.21
2017-11-10T00:39:07.490Z,13.13
2017-11-10T00:40:17.598Z,13.16
2017-11-10T00:41:28.030Z,13.16
2017-11-10T00:42:38.116Z,13.14
2017-11-10T00:43:48.528Z,13.25
2017-11-10T00:44:58.609Z,13.24
2017-11-10T00:46:09.002Z,13.19
2017-11-10T00:47:19.427Z,13.24
2017-11-10T00:48:29.855Z,13.2
2017-11-10T00:49:39.936Z,13.17
2017-11-10T00:50:50.331Z,13.2
2017-11-10T00:52:00.733Z,13.25
2017-11-10T00:53:10.825Z,13.24
2017-11-10T00:54:20.578Z,13.14
2017-11-10T00:55:30.369Z,13.2
2017-11-10T00:56:40.684Z,13.17
2017-11-10T00:57:51.430Z,13.16
2017-11-10T00:59:01.504Z,13.14
2017-11-10T01:00:11.274Z,13.17
2017-11-10T01:01:21.739Z,13.17
2017-11-10T01:02:32.149Z,13.13
2017-11-10T01:03:42.242Z,13.13
2017-11-10T01:04:52.331Z,13.16
2017-11-10T01:06:02.738Z,13.17
2017-11-10T01:07:13.129Z,13.16
2017-11-10T01:08:23.206Z,13.14
2017-11-10T01:09:33.636Z,13.11
2017-11-10T01:10:43.051Z,13.14
2017-11-10T01:11:53.469Z,13.14
2017-11-10T01:13:03.933Z,13.16
2017-11-10T01:14:14.777Z,13.19
2017-11-10T01:15:24.509Z,13.16
2017-11-10T01:16:34.900Z,13.17
2017-11-10T01:17:45.256Z,13.1
2017-11-10T01:18:55.400Z,13.11
2017-11-10T01:20:05.824Z,13.09
2017-11-10T01:21:16.278Z,13.13
2017-11-10T01:22:26.682Z,13.13
2017-11-10T01:23:36.987Z,13.1
2017-11-10T01:24:47.126Z,13.14
2017-11-10T01:25:57.527Z,13.17
2017-11-10T01:27:07.273Z,13.19
2017-11-10T01:28:17.349Z,13.11
2017-11-10T01:29:27.766Z,13.14
2017-11-10T01:30:37.899Z,13.16
2017-11-10T01:31:48.345Z,13.16
2017-11-10T01:32:58.434Z,13.17
2017-11-10T01:34:08.865Z,13.17
2017-11-10T01:35:19.274Z,13.14
2017-11-10T01:36:29.367Z,13.16
2017-11-10T01:37:39.770Z,13.13
2017-11-10T01:38:50.176Z,13.13
2017-11-10T01:40:00.264Z,13.09
2017-11-10T01:41:10.695Z,13.06
2017-11-10T01:42:21.102Z,13.13
2017-11-10T01:43:31.178Z,13.11
2017-11-10T01:44:41.615Z,13.1
2017-11-10T01:45:52.650Z,13.17
2017-11-10T01:47:03.057Z,13.09
2017-11-10T01:48:13.393Z,13.11
2017-11-10T01:49:23.477Z,13.11
2017-11-10T01:50:33.558Z,13.13
2017-11-10T01:51:43.635Z,13.1
2017-11-10T01:52:54.041Z,13.14
2017-11-10T01:54:05.992Z,13.1
2017-11-10T01:55:16.410Z,13.1
2017-11-10T01:56:26.168Z,13.14
2017-11-10T01:57:36.231Z,13.14
2017-11-10T01:58:46.322Z,13.16
2017-11-10T01:59:56.466Z,13.11
2017-11-10T02:01:06.543Z,13.09
2017-11-10T02:02:16.995Z,13.1
2017-11-10T02:03:26.745Z,13.1
2017-11-10T02:04:36.829Z,13.03
2017-11-10T02:05:46.956Z,13.06
2017-11-10T02:06:57.034Z,13.06
2017-11-10T02:08:07.460Z,13.02
2017-11-10T02:09:17.526Z,13.1
2017-11-10T02:10:27.597Z,13.06
2017-11-10T02:11:38.067Z,13.03
2017-11-10T02:12:48.524Z,13.1
2017-11-10T02:13:58.948Z,12.99
2017-11-10T02:15:09.385Z,12.92
2017-11-10T02:16:19.801Z,12.95
2017-11-10T02:17:29.886Z,13.01
2017-11-10T02:18:39.980Z,13.02
2017-11-10T02:19:50.839Z,13.02
2017-11-10T02:21:01.258Z,12.98
2017-11-10T02:22:11.666Z,12.91
2017-11-10T02:23:21.738Z,12.95
2017-11-10T02:24:32.157Z,12.86
2017-11-10T02:25:42.243Z,12.92
2017-11-10T02:26:52.647Z,12.86
2017-11-10T02:28:03.066Z,12.91
2017-11-10T02:29:13.432Z,13.02
2017-11-10T02:30:23.850Z,12.84
2017-11-10T02:31:33.945Z,12.89
2017-11-10T02:32:43.386Z,12.89
2017-11-10T02:33:53.797Z,12.89
2017-11-10T02:35:03.876Z,12.86
2017-11-10T02:36:14.293Z,12.92
2017-11-10T02:37:24.694Z,12.88
2017-11-10T02:38:34.462Z,13.01
2017-11-10T02:39:44.891Z,12.91
2017-11-10T02:40:55.314Z,12.91
2017-11-10T02:42:05.746Z,12.98
2017-11-10T02:43:15.858Z,12.92
2017-11-10T02:44:25.937Z,13.01
2017-11-10T02:45:35.736Z,12.95
2017-11-10T02:46:46.165Z,12.98
2017-11-10T02:47:56.259Z,13.01
2017-11-10T02:49:06.681Z,13.06
2017-11-10T02:50:17.089Z,12.98
2017-11-10T02:51:27.193Z,12.94
2017-11-10T02:52:37.667Z,12.98
2017-11-10T02:53:48.088Z,13.03
2017-11-10T02:54:57.844Z,13.02
2017-11-10T02:56:07.933Z,12.98
2017-11-10T02:57:18.322Z,12.99
2017-11-10T02:58:28.753Z,12.94
2017-11-10T02:59:39.178Z,12.91
2017-11-10T03:00:49.632Z,12.91
2017-11-10T03:32:59.752Z,10.58
2017-11-10T03:34:10.142Z,10.38
2017-11-10T03:35:20.552Z,10.49
2017-11-10T03:36:30.966Z,10.52
2017-11-10T03:37:41.394Z,10.52
2017-11-10T03:38:51.857Z,10.69
2017-11-10T03:40:02.259Z,10.75
2017-11-10T03:41:12.874Z,10.88
2017-11-10T03:42:22.985Z,10.98
2017-11-10T03:43:33.411Z,11.1
2017-11-10T03:44:43.486Z,11.23
2017-11-10T03:45:53.896Z,11.3
2017-11-10T03:47:03.734Z,11.49
2017-11-10T03:48:14.145Z,11.59
2017-11-10T03:49:24.556Z,11.71
2017-11-10T03:50:34.302Z,11.82
2017-11-10T03:51:44.724Z,11.95
2017-11-10T03:52:55.130Z,11.91
2017-11-10T03:54:05.206Z,12.16
2017-11-10T03:55:15.618Z,12.18
2017-11-10T03:56:26.083Z,12.33
2017-11-10T03:57:36.547Z,12.22
2017-11-10T03:58:46.946Z,12.29
2017-11-10T03:59:57.042Z,12.45
2017-11-10T04:01:07.142Z,12.53
2017-11-10T04:02:17.604Z,12.52
2017-11-10T04:03:27.704Z,12.51
2017-11-10T04:04:37.118Z,12.53
2017-11-10T04:05:46.857Z,12.48
2017-11-10T04:06:57.274Z,12.59
2017-11-10T04:08:07.682Z,12.62
2017-11-10T04:09:18.106Z,12.59
2017-11-10T04:10:28.183Z,12.7
2017-11-10T04:11:38.589Z,12.74
2017-11-10T04:12:48.386Z,12.7
2017-11-10T04:13:58.464Z,12.76
2017-11-10T04:15:08.221Z,12.71
2017-11-10T04:16:18.298Z,12.83
2017-11-10T04:17:28.704Z,12.78
2017-11-10T04:18:38.795Z,12.84
2017-11-10T04:19:49.214Z,12.71
2017-11-10T04:20:59.635Z,12.77
2017-11-10T04:22:10.070Z,12.84
2017-11-10T04:23:20.479Z,12.8
2017-11-10T04:24:30.544Z,12.77
2017-11-10T04:25:40.996Z,12.78
2017-11-10T04:26:50.757Z,12.83
2017-11-10T04:28:00.840Z,12.81
2017-11-10T04:29:11.249Z,12.88
2017-11-10T04:30:21.655Z,12.88
2017-11-10T04:31:31.728Z,12.89
2017-11-10T04:32:41.815Z,12.94
2017-11-10T04:33:52.226Z,12.94
2017-11-10T04:35:02.297Z,12.84
2017-11-10T04:36:12.711Z,12.88
2017-11-10T04:37:22.788Z,12.91
2017-11-10T04:38:33.187Z,12.89
2017-11-10T04:39:43.264Z,12.8
2017-11-10T04:40:53.708Z,12.84
2017-11-10T04:42:03.775Z,12.89
2017-11-10T04:43:14.238Z,12.91
2017-11-10T04:44:24.353Z,12.89
2017-11-10T04:45:34.802Z,12.95
2017-11-10T04:46:45.276Z,12.89
2017-11-10T04:47:55.710Z,12.91
2017-11-10T04:49:06.125Z,12.88
2017-11-10T04:50:15.532Z,12.92
2017-11-10T04:51:25.943Z,12.89
2017-11-10T04:52:35.357Z,12.91
2017-11-10T04:53:45.433Z,12.86
2017-11-10T04:54:55.857Z,12.94
2017-11-10T04:56:06.253Z,12.92
2017-11-10T04:57:16.654Z,12.98
2017-11-10T04:58:27.072Z,13.03
2017-11-10T04:59:37.152Z,12.99
2017-11-10T05:00:47.242Z,13.03
2017-11-10T05:01:57.322Z,13.03
2017-11-10T05:03:06.409Z,12.94
2017-11-10T05:04:16.822Z,12.86
2017-11-10T05:05:26.934Z,12.88
2017-11-10T05:06:37.073Z,12.94
2017-11-10T05:07:47.129Z,12.91
2017-11-10T05:08:57.537Z,12.88
2017-11-10T05:10:07.978Z,12.89
2017-11-10T05:11:18.376Z,12.89
2017-11-10T05:12:28.523Z,12.92
2017-11-10T05:13:38.940Z,12.83
2017-11-10T05:14:49.366Z,12.91
2017-11-10T05:15:59.775Z,12.94
2017-11-10T05:17:10.168Z,12.89
2017-11-10T05:18:20.571Z,12.94
2017-11-10T05:19:30.637Z,12.89
2017-11-10T05:20:41.050Z,12.89
2017-11-10T05:21:51.462Z,12.89
2017-11-10T05:23:01.571Z,12.94
2017-11-10T05:24:11.971Z,12.84
2017-11-10T05:25:22.037Z,12.92
2017-11-10T05:26:32.465Z,12.89
2017-11-10T05:27:42.543Z,12.89
2017-11-10T05:28:52.959Z,12.89
2017-11-10T05:30:03.371Z,12.89
2017-11-10T05:31:13.770Z,12.91
2017-11-10T05:32:23.859Z,12.84
2017-11-10T05:33:33.954Z,12.91
2017-11-10T05:34:44.375Z,12.86
2017-11-10T05:35:54.528Z,12.86
2017-11-10T05:37:04.594Z,12.86
2017-11-10T05:38:14.329Z,12.81
2017-11-10T05:39:24.752Z,12.86
2017-11-10T05:40:34.832Z,12.83
2017-11-10T05:41:44.902Z,12.8
2017-11-10T05:42:55.333Z,12.89
2017-11-10T05:44:05.774Z,12.89
2017-11-10T05:45:16.211Z,12.88
2017-11-10T05:46:26.644Z,12.83
2017-11-10T05:47:36.781Z,12.81
2017-11-10T05:48:46.892Z,12.89
2017-11-10T05:49:57.307Z,12.89
2017-11-10T05:51:07.723Z,12.92
2017-11-10T05:52:17.796Z,12.91
2017-11-10T05:53:27.880Z,13.06
2017-11-10T05:54:38.335Z,13.01
2017-11-10T05:55:48.396Z,12.91
2017-11-10T05:56:58.138Z,12.99
2017-11-10T05:58:08.215Z,12.95
2017-11-10T05:59:18.282Z,13.02
2017-11-10T06:00:28.694Z,12.94
2017-11-10T06:01:39.095Z,12.96
2017-11-10T06:02:49.201Z,12.94
2017-11-10T06:03:58.934Z,13.02
2017-11-10T06:05:09.347Z,12.99
2017-11-10T06:06:19.757Z,12.95
2017-11-10T06:07:29.840Z,13.07
2017-11-10T06:08:39.948Z,13.02
2017-11-10T06:09:50.374Z,12.88
2017-11-10T06:11:00.780Z,12.95
2017-11-10T06:12:10.866Z,12.99
2017-11-10T06:13:20.935Z,13.03
2017-11-10T06:14:31.367Z,12.98
2017-11-10T06:15:41.427Z,12.96
2017-11-10T06:16:51.888Z,13.03
2017-11-10T06:18:02.320Z,13.03
2017-11-10T06:19:12.735Z,13.03
2017-11-10T06:20:23.148Z,13.07
2017-11-10T06:21:33.567Z,13.06
2017-11-10T06:22:43.702Z,13.07
2017-11-10T06:23:53.114Z,13.06
2017-11-10T06:25:03.204Z,13.06
2017-11-10T06:26:13.611Z,13.1
2017-11-10T06:27:23.677Z,13.06
2017-11-10T06:28:33.416Z,13.1
2017-11-10T06:29:43.833Z,13.1
2017-11-10T06:30:54.235Z,13.1
2017-11-10T06:32:04.317Z,13.03
2017-11-10T06:33:14.398Z,13.01
2017-11-10T06:34:24.156Z,13.01
2017-11-10T06:35:34.243Z,12.98
2017-11-10T06:36:44.663Z,13.06
2017-11-10T06:37:54.741Z,13.01
2017-11-10T06:39:05.180Z,12.98
2017-11-10T06:40:15.272Z,13.02
2017-11-10T06:41:25.737Z,13.1
2017-11-10T06:42:35.820Z,13.09
2017-11-10T06:43:45.902Z,13.11
2017-11-10T06:44:55.986Z,13.17
2017-11-10T06:46:06.398Z,13.19
2017-11-10T06:47:16.808Z,13.19
2017-11-10T06:48:27.202Z,13.16
2017-11-10T06:49:37.616Z,13.17
2017-11-10T06:50:47.362Z,13.2
2017-11-10T06:51:57.445Z,13.31
2017-11-10T06:53:07.578Z,13.24
2017-11-10T06:54:17.325Z,13.29
2017-11-10T06:55:27.068Z,13.24
2017-11-10T06:56:37.470Z,13.21
2017-11-10T06:57:47.891Z,13.36
2017-11-10T06:58:57.970Z,13.32
2017-11-10T07:00:08.430Z,13.25
2017-11-10T07:01:18.517Z,13.32
2017-11-10T07:02:28.941Z,13.27
2017-11-10T07:03:39.001Z,13.31
2017-11-10T07:04:48.817Z,13.32
2017-11-10T07:05:59.248Z,13.21
2017-11-10T07:07:09.334Z,13.32
2017-11-10T07:08:19.801Z,13.31
2017-11-10T07:09:29.538Z,13.32
2017-11-10T07:10:39.637Z,13.27
2017-11-10T07:11:49.707Z,13.27
2017-11-10T07:13:00.109Z,13.4
2017-11-10T07:14:10.506Z,13.4
2017-11-10T07:15:20.921Z,13.32
2017-11-10T07:16:31.020Z,13.37
2017-11-10T07:17:41.440Z,13.39
2017-11-10T07:18:51.862Z,13.36
2017-11-10T07:20:02.292Z,13.47
2017-11-10T07:21:12.704Z,13.47
2017-11-10T07:22:22.768Z,13.5
2017-11-10T07:23:33.184Z,13.47
2017-11-10T07:24:43.620Z,13.48
2017-11-10T07:25:53.683Z,13.57
2017-11-10T07:27:04.110Z,13.57
2017-11-10T07:28:13.871Z,13.58
2017-11-10T07:29:23.613Z,13.6
2017-11-10T07:30:34.037Z,13.57
2017-11-10T07:31:44.445Z,13.55
2017-11-10T07:32:54.859Z,13.5
2017-11-10T07:34:05.293Z,13.55
2017-11-10T07:35:15.402Z,13.55
2017-11-10T07:36:25.847Z,13.51
2017-11-10T07:37:34.929Z,13.57
2017-11-10T07:38:45.342Z,13.55
2017-11-10T07:39:55.763Z,13.48
2017-11-10T07:41:05.850Z,13.5
2017-11-10T07:42:15.601Z,13.53
2017-11-10T07:43:25.679Z,13.51
2017-11-10T07:44:35.772Z,13.53
2017-11-10T07:45:46.168Z,13.5
2017-11-10T07:46:55.933Z,13.5
2017-11-10T07:48:06.359Z,13.48
2017-11-10T07:49:16.791Z,13.58
2017-11-10T07:50:27.201Z,13.51
2017-11-10T07:51:37.021Z,13.54
2017-11-10T07:52:47.098Z,13.65
2017-11-10T07:53:57.509Z,13.57
2017-11-10T07:55:07.581Z,13.62
2017-11-10T07:56:17.989Z,13.62
2017-11-10T07:57:28.401Z,13.58
2017-11-10T07:58:38.151Z,13.62
2017-11-10T07:59:48.568Z,13.69
2017-11-10T08:00:58.987Z,13.69
2017-11-10T08:02:09.407Z,13.81
2017-11-10T08:03:19.145Z,13.73
2017-11-10T08:04:29.220Z,13.86
2017-11-10T08:05:39.297Z,13.84
2017-11-10T08:06:49.419Z,13.9
2017-11-10T08:07:59.855Z,13.87
2017-11-10T08:09:09.930Z,13.99
2017-11-10T08:10:20.011Z,13.94
2017-11-10T08:11:30.310Z,14.11
2017-11-10T08:12:40.762Z,14.09
2017-11-10T08:13:51.230Z,14.09
2017-11-10T08:15:01.680Z,14.06
2017-11-10T08:16:12.092Z,14.13
2017-11-10T08:17:21.503Z,14.06
2017-11-10T08:18:31.641Z,14.09
2017-11-10T08:19:42.049Z,14.08
2017-11-10T08:20:52.124Z,14.13
2017-11-10T08:22:02.224Z,14.23
2017-11-10T08:23:12.309Z,14.3
2017-11-10T08:24:22.414Z,14.31
2017-11-10T08:25:32.514Z,14.28
2017-11-10T08:26:42.613Z,14.31
2017-11-10T08:27:52.706Z,14.36
2017-11-10T08:29:03.121Z,14.34
2017-11-10T08:30:13.240Z,14.39
2017-11-10T08:31:23.322Z,14.3
2017-11-10T08:32:35.873Z,14.27
2017-11-10T08:33:50.902Z,14.38
2017-11-10T08:35:05.793Z,14.3
2017-11-10T08:36:20.614Z,14.3
2017-11-10T08:37:33.783Z,14.3
2017-11-10T08:38:44.331Z,14.36
2017-11-10T08:39:54.745Z,14.34
2017-11-10T08:41:04.492Z,14.41
2017-11-10T08:42:14.584Z,14.28
2017-11-10T08:43:25.027Z,14.38
2017-11-10T08:44:35.129Z,14.39
2017-11-10T08:45:45.416Z,14.49
2017-11-10T08:46:56.068Z,14.46
2017-11-10T08:48:06.488Z,14.51
2017-11-10T08:49:16.278Z,14.52
2017-11-10T08:50:26.742Z,14.52
2017-11-10T08:52:11.638Z,14.56
2017-11-10T08:53:22.102Z,14.48
2017-11-10T08:54:32.213Z,14.46
2017-11-10T08:55:42.384Z,14.53
2017-11-10T08:56:52.798Z,14.6
2017-11-10T08:58:03.246Z,14.53
2017-11-10T08:59:13.700Z,14.52
2017-11-10T09:00:24.143Z,14.59
2017-11-10T09:01:34.579Z,14.64
2017-11-10T09:02:45.171Z,14.59
2017-11-10T09:03:55.274Z,14.52
2017-11-10T09:05:05.065Z,14.57
2017-11-10T09:06:15.497Z,14.57
2017-11-10T09:07:25.669Z,14.61
2017-11-10T09:08:36.232Z,14.64
2017-11-10T09:09:46.652Z,14.66
2017-11-10T09:10:57.097Z,14.67
2017-11-10T09:15:44.786Z,14.53
2017-11-10T09:17:28.780Z,14.61
2017-11-10T09:19:37.111Z,14.53
2017-11-10T09:20:47.728Z,14.7
2017-11-10T09:21:57.834Z,14.64
2017-11-10T09:23:08.279Z,14.64
2017-11-10T09:24:18.771Z,14.63
2017-11-10T09:25:29.886Z,14.7
2017-11-10T09:26:41.382Z,14.7
2017-11-10T09:27:52.441Z,14.69
2017-11-10T09:29:03.377Z,14.7
2017-11-10T09:30:13.895Z,14.7
2017-11-10T09:31:24.326Z,14.67
2017-11-10T09:32:34.807Z,14.71
2017-11-10T09:33:45.232Z,14.74
2017-11-10T09:34:55.306Z,14.79
2017-11-10T09:36:05.064Z,14.83
2017-11-10T09:37:15.155Z,14.9
2017-11-10T09:38:24.982Z,14.77
2017-11-10T09:39:35.099Z,14.89
2017-11-10T09:40:45.211Z,14.89
2017-11-10T09:41:55.322Z,14.95
2017-11-10T09:43:05.849Z,14.94
2017-11-10T09:44:16.321Z,15.08
2017-11-10T09:45:26.488Z,15.13
2017-11-10T09:46:36.605Z,15.19
2017-11-10T09:47:46.704Z,15.18
2017-11-10T09:48:57.143Z,15.16
2017-11-10T09:50:07.611Z,15.13
2017-11-10T09:51:17.688Z,15.15
2017-11-10T09:52:28.108Z,15.1
2017-11-10T09:53:37.861Z,15.05
2017-11-10T09:54:47.944Z,15.13
2017-11-10T09:55:58.428Z,15.1
2017-11-10T09:57:08.543Z,15.13
2017-11-10T09:58:18.621Z,15.1
2017-11-10T09:59:28.773Z,15.12
2017-11-10T10:00:39.219Z,15.15
2017-11-10T10:01:49.686Z,15.2
2017-11-10T10:02:59.788Z,15.18
2017-11-10T10:04:10.238Z,15.12
2017-11-10T10:05:20.654Z,15.12
2017-11-10T10:06:30.748Z,15.15
2017-11-10T10:07:41.170Z,15.07
2017-11-10T10:08:51.587Z,15.16
2017-11-10T10:10:02.014Z,15.01
2017-11-10T10:11:12.102Z,15.05
2017-11-10T10:12:22.543Z,15.01
2017-11-10T10:13:32.337Z,15.05
2017-11-10T10:14:42.156Z,15.04
2017-11-10T10:15:52.594Z,15.08
2017-11-10T10:17:02.671Z,15.04
2017-11-10T10:18:12.439Z,15.01
2017-11-10T10:19:22.913Z,14.98
2017-11-10T10:20:33.032Z,14.97
2017-11-10T10:21:43.172Z,14.98
2017-11-10T10:22:53.308Z,14.97
2017-11-10T10:24:03.424Z,15.01
2017-11-10T10:25:13.926Z,15.05
2017-11-10T10:26:24.585Z,15.12
2017-11-10T10:27:35.125Z,15.08
2017-11-10T10:28:45.232Z,15.04
2017-11-10T10:29:55.333Z,15.01
2017-11-10T10:31:05.420Z,15.07
2017-11-10T10:32:15.838Z,15.02
2017-11-10T10:33:26.263Z,15.02
2017-11-10T10:34:36.041Z,14.98
2017-11-10T10:35:46.139Z,15.02
2017-11-10T10:36:56.296Z,15.08
2017-11-10T10:38:06.396Z,15
2017-11-10T10:39:16.987Z,15.04
2017-11-10T10:40:27.072Z,15.05
2017-11-10T10:41:37.517Z,15.12
2017-11-10T10:42:48.955Z,15.1
2017-11-10T10:43:58.742Z,15.1
2017-11-10T10:45:08.512Z,15.07
2017-11-10T10:46:18.947Z,15.13
2017-11-10T10:47:29.045Z,15.13
2017-11-10T10:48:39.486Z,15.08
2017-11-10T10:49:49.269Z,15.13
2017-11-10T10:50:59.708Z,15.16
2017-11-10T10:52:10.135Z,15.05
2017-11-10T10:53:20.221Z,15.13
2017-11-10T10:54:30.692Z,15.13
2017-11-10T10:55:41.170Z,15.08
2017-11-10T10:56:51.634Z,15.12
2017-11-10T10:58:02.073Z,15.1
2017-11-10T10:59:12.500Z,15.15
2017-11-10T11:00:22.985Z,15.19
2017-11-10T11:01:33.416Z,15.22
2017-11-10T11:02:43.534Z,15.25
2017-11-10T11:03:53.994Z,15.26
2017-11-10T11:05:04.094Z,15.35
2017-11-10T11:06:14.564Z,15.31
2017-11-10T11:07:24.312Z,15.33
2017-11-10T11:08:34.724Z,15.3
2017-11-10T11:09:45.169Z,15.47
2017-11-10T11:10:55.264Z,15.44
2017-11-10T11:12:05.733Z,15.58
2017-11-10T11:13:16.173Z,15.52
2017-11-10T11:14:26.306Z,15.52
2017-11-10T11:15:36.385Z,15.56
2017-11-10T11:16:46.795Z,15.62
2017-11-10T11:17:56.967Z,15.63
2017-11-10T11:19:06.727Z,15.67
2017-11-10T11:20:16.816Z,15.67
2017-11-10T11:21:27.252Z,15.78
2017-11-10T11:22:37.658Z,15.8
2017-11-10T11:23:47.763Z,15.71
2017-11-10T11:24:58.178Z,15.8
2017-11-10T11:26:08.288Z,15.8
2017-11-10T11:27:18.735Z,15.86
2017-11-10T11:28:28.824Z,15.83
2017-11-10T11:29:39.298Z,15.8
2017-11-10T11:30:49.386Z,15.81
2017-11-10T11:31:59.821Z,15.67
2017-11-10T11:33:10.248Z,15.6
2017-11-10T11:34:20.685Z,15.7
2017-11-10T11:35:30.764Z,15.62
2017-11-10T11:36:41.209Z,15.68
2017-11-10T11:37:51.642Z,15.68
2017-11-10T11:39:02.064Z,15.68
2017-11-10T11:40:12.159Z,15.59
2017-11-10T11:41:21.950Z,15.58
2017-11-10T11:42:31.750Z,15.58
2017-11-10T11:43:42.159Z,15.55
2017-11-10T11:44:52.272Z,15.6
2017-11-10T11:46:02.063Z,15.6
2017-11-10T11:47:12.572Z,15.58
2017-11-10T11:48:23.015Z,15.62
2017-11-10T11:49:33.444Z,15.47
2017-11-10T11:50:43.873Z,15.47
2017-11-10T11:51:54.316Z,15.49
2017-11-10T11:53:04.444Z,15.45
2017-11-10T11:54:14.539Z,15.45
2017-11-10T11:55:24.628Z,15.52
2017-11-10T11:56:34.382Z,15.44
2017-11-10T11:57:43.804Z,15.56
2017-11-10T11:58:53.956Z,15.55
2017-11-10T12:00:04.066Z,15.62
2017-11-10T12:01:14.497Z,15.74
2017-11-10T12:02:24.937Z,15.71
2017-11-10T12:03:35.383Z,15.83
2017-11-10T12:04:44.838Z,15.75
2017-11-10T12:05:54.613Z,15.86
2017-11-10T12:07:05.046Z,15.77
2017-11-10T12:08:15.176Z,15.92
2017-11-10T12:09:25.593Z,15.96
2017-11-10T12:10:35.420Z,15.88
2017-11-10T12:11:45.517Z,15.86
2017-11-10T12:12:55.627Z,15.88
2017-11-10T12:14:05.713Z,15.84
2017-11-10T12:15:16.184Z,15.91
2017-11-10T12:16:25.999Z,15.91
2017-11-10T12:17:36.103Z,15.81
2017-11-10T12:18:46.186Z,15.91
2017-11-10T12:19:56.278Z,15.92
2017-11-10T12:21:06.383Z,15.99
2017-11-10T12:22:16.805Z,15.99
2017-11-10T12:23:26.893Z,15.99
2017-11-10T12:24:36.986Z,15.93
2017-11-10T12:25:47.410Z,16
2017-11-10T12:26:57.847Z,16.02
2017-11-10T12:28:08.301Z,16.04
2017-11-10T12:29:18.755Z,16.04
2017-11-10T12:30:29.191Z,16.07
2017-11-10T12:31:38.619Z,15.96
2017-11-10T12:32:48.427Z,15.96
2017-11-10T12:33:58.562Z,16
2017-11-10T12:35:07.647Z,15.95
2017-11-10T12:36:17.769Z,15.93
2017-11-10T12:37:28.192Z,16.04
2017-11-10T12:38:37.941Z,16.08
2017-11-10T12:39:48.094Z,16
2017-11-10T12:40:58.202Z,16.04
2017-11-10T12:42:08.315Z,16.11
2017-11-10T12:43:18.755Z,16.13
2017-11-10T12:44:28.947Z,16.1
2017-11-10T12:45:39.434Z,16.06
2017-11-10T12:46:49.852Z,16.13
2017-11-10T12:48:00.793Z,16.04
2017-11-10T12:49:10.886Z,16
2017-11-10T12:50:20.695Z,15.95
2017-11-10T12:51:31.121Z,15.95
2017-11-10T12:52:41.605Z,15.81
2017-11-10T12:53:52.031Z,15.81
2017-11-10T12:55:01.782Z,15.71
2017-11-10T12:56:11.901Z,15.77
2017-11-10T12:57:22.039Z,15.81
2017-11-10T12:58:32.459Z,15.8
2017-11-10T12:59:42.214Z,15.74
2017-11-10T13:00:52.307Z,15.73
2017-11-10T13:02:02.404Z,15.68
2017-11-10T13:03:13.414Z,15.68
2017-11-10T13:04:23.169Z,15.58
2017-11-10T13:05:33.593Z,15.45
2017-11-10T13:06:43.704Z,15.49
2017-11-10T13:07:54.124Z,15.47
2017-11-10T13:09:04.263Z,15.41
2017-11-10T13:10:14.686Z,15.47
2017-11-10T13:11:24.103Z,15.47
2017-11-10T13:12:34.523Z,15.49
2017-11-10T13:13:44.959Z,15.47
2017-11-10T13:14:55.094Z,15.43
2017-11-10T13:16:05.226Z,15.49
2017-11-10T13:17:15.668Z,15.47
2017-11-10T13:18:25.779Z,15.49
2017-11-10T13:19:35.860Z,15.58
2017-11-10T13:20:45.945Z,15.51
2017-11-10T13:21:56.021Z,15.44
2017-11-10T13:23:06.483Z,15.55
2017-11-10T13:24:16.905Z,15.62
2017-11-10T13:25:26.670Z,15.59
2017-11-10T13:26:36.814Z,15.56
2017-11-10T13:27:46.567Z,15.59
2017-11-10T13:28:56.669Z,15.58
2017-11-10T13:30:07.099Z,15.41
2017-11-10T13:31:17.195Z,15.53
2017-11-10T13:32:26.953Z,15.56
2017-11-10T13:33:37.397Z,15.53
2017-11-10T13:34:47.823Z,15.55
2017-11-10T13:35:58.249Z,15.62
2017-11-10T13:37:08.684Z,15.58
2017-11-10T13:38:18.837Z,15.6
2017-11-10T13:39:29.040Z,15.56
2017-11-10T13:40:39.475Z,15.55
2017-11-10T13:41:49.605Z,15.52
2017-11-10T13:43:00.054Z,15.49
2017-11-10T13:44:10.486Z,15.43
2017-11-10T13:45:20.595Z,15.4
2017-11-10T13:46:31.027Z,15.37
2017-11-10T13:47:40.788Z,15.27
2017-11-10T13:48:51.222Z,15.38
2017-11-10T13:50:02.416Z,15.18
2017-11-10T13:51:12.836Z,15.25
2017-11-10T13:52:22.934Z,15.16
2017-11-10T13:53:33.357Z,15.19
2017-11-10T13:54:43.785Z,15.1
2017-11-10T13:55:53.915Z,15.16
2017-11-10T13:57:04.023Z,15.08
2017-11-10T13:58:14.148Z,14.93
2017-11-10T13:59:24.576Z,14.9
2017-11-10T14:00:34.994Z,14.87
2017-11-10T14:01:45.138Z,14.8
2017-11-10T14:02:55.245Z,14.79
2017-11-10T14:04:05.668Z,14.79
2017-11-10T14:05:16.114Z,14.79
2017-11-10T14:06:26.200Z,14.75
2017-11-10T14:07:36.352Z,14.67
2017-11-10T14:08:46.123Z,14.7
2017-11-10T14:09:56.216Z,14.71
2017-11-10T14:11:06.667Z,14.56
2017-11-10T14:12:17.103Z,14.51
2017-11-10T14:13:27.244Z,14.51
2017-11-10T14:14:37.316Z,14.48
2017-11-10T14:15:47.390Z,14.51
2017-11-10T14:16:57.480Z,14.48
2017-11-10T14:18:07.958Z,14.51
2017-11-10T14:19:17.769Z,14.42
2017-11-10T14:20:27.510Z,14.42
2017-11-10T14:21:38.043Z,14.38
2017-11-10T14:22:47.788Z,14.41
2017-11-10T14:23:58.211Z,14.3
2017-11-10T14:25:08.392Z,14.36
2017-11-10T14:26:18.811Z,14.27
2017-11-10T14:27:29.285Z,14.3
2017-11-10T14:28:39.380Z,14.27
2017-11-10T14:29:49.830Z,14.15
2017-11-10T14:30:59.640Z,14.09
2017-11-10T14:32:10.084Z,14.09
2017-11-10T14:33:20.532Z,14.09
2017-11-10T14:34:30.999Z,13.95
2017-11-10T14:35:41.420Z,13.99
2017-11-10T14:36:51.255Z,13.97
2017-11-10T14:38:01.684Z,13.94
2017-11-10T14:39:12.108Z,13.94
2017-11-10T14:40:22.202Z,13.9
2017-11-10T14:41:32.691Z,13.99
2017-11-10T14:42:42.843Z,13.99
2017-11-10T14:43:53.264Z,13.93
2017-11-10T14:45:03.361Z,13.86
2017-11-10T14:46:13.490Z,13.9
2017-11-10T14:47:23.944Z,13.87
2017-11-10T14:48:34.089Z,13.86
2017-11-10T14:49:44.525Z,13.79
2017-11-10T14:50:54.329Z,13.84
2017-11-10T14:52:04.763Z,13.78
2017-11-10T14:53:15.236Z,13.75
2017-11-10T14:54:25.374Z,13.76
2017-11-10T14:55:35.492Z,13.72
2017-11-10T14:56:45.604Z,13.72
2017-11-10T14:57:56.076Z,13.72
2017-11-10T14:59:05.814Z,13.66
2017-11-10T15:00:16.300Z,13.65
2017-11-10T15:01:26.063Z,13.62
2017-11-10T15:02:36.492Z,13.63
2017-11-10T15:03:46.939Z,13.7
2017-11-10T15:04:57.399Z,13.63
2017-11-10T15:06:07.839Z,13.58
2017-11-10T15:07:17.602Z,13.66
2017-11-10T15:08:27.022Z,13.65
2017-11-10T15:09:37.141Z,13.6
2017-11-10T15:10:47.218Z,13.6
2017-11-10T15:11:57.646Z,13.6
2017-11-10T15:13:07.773Z,13.62
2017-11-10T15:14:17.867Z,13.53
2017-11-10T15:15:28.303Z,13.58
2017-11-10T15:16:38.401Z,13.55
2017-11-10T15:17:48.864Z,13.54
2017-11-10T15:18:58.992Z,13.4
2017-11-10T15:20:09.413Z,13.42
2017-11-10T15:21:19.542Z,13.36
2017-11-10T15:22:29.664Z,13.37
2017-11-10T15:23:39.428Z,13.32
2017-11-10T15:24:49.866Z,13.36
2017-11-10T15:25:59.975Z,13.31
2017-11-10T15:27:10.387Z,13.2
2017-11-10T15:28:20.815Z,13.17
2017-11-10T15:29:30.980Z,13.11
2017-11-10T15:30:41.410Z,13.13
2017-11-10T15:31:51.849Z,13.13
2017-11-10T15:33:02.264Z,13.1
2017-11-10T15:34:12.368Z,13.1
2017-11-10T15:35:22.840Z,13.02
2017-11-10T15:36:32.940Z,13.01
2017-11-10T15:37:43.371Z,12.98
2017-11-10T15:38:53.794Z,12.99
2017-11-10T15:40:04.265Z,13.02
2017-11-10T15:41:14.739Z,13.06
2017-11-10T15:42:25.161Z,13.02
2017-11-10T15:43:35.245Z,12.92
2017-11-10T15:44:45.678Z,12.94